sensor_id;sensor_type;location;lat;lon;timestamp;P1;durP1;ratioP1;P2;durP2;ratioP2
66425;SDS011;53237;46.158;14.604;2023-04-16T00:00:26;8.52;;;7.63;;
66425;SDS011;53237;46.158;14.604;2023-04-16T00:02:52;7.57;;;6.88;;
66425;SDS011;53237;46.158;14.604;2023-04-16T00:05:18;8.23;;;7.43;;
66425;SDS011;53237;46.158;14.604;2023-04-16T00:07:44;8.07;;;7.28;;
66425;SDS011;53237;46.158;14.604;2023-04-16T00:10:10;8.98;;;8.07;;
66425;SDS011;53237;46.158;14.604;2023-04-16T00:12:36;7.45;;;6.70;;
66425;SDS011;53237;46.158;14.604;2023-04-16T00:15:02;9.57;;;8.68;;
66425;SDS011;53237;46.158;14.604;2023-04-16T00:17:28;9.27;;;8.35;;
66425;SDS011;53237;46.158;14.604;2023-04-16T00:19:54;7.50;;;6.80;;
66425;SDS011;53237;46.158;14.604;2023-04-16T00:22:20;9.63;;;8.20;;
66425;SDS011;53237;46.158;14.604;2023-04-16T00:24:46;10.10;;;9.10;;
66425;SDS011;53237;46.158;14.604;2023-04-16T00:27:12;9.23;;;8.10;;
66425;SDS011;53237;46.158;14.604;2023-04-16T00:29:38;9.27;;;8.25;;
66425;SDS011;53237;46.158;14.604;2023-04-16T00:32:04;8.30;;;7.50;;
66425;SDS011;53237;46.158;14.604;2023-04-16T00:34:31;9.07;;;8.18;;
66425;SDS011;53237;46.158;14.604;2023-04-16T00:36:58;8.60;;;7.72;;
66425;SDS011;53237;46.158;14.604;2023-04-16T00:39:24;9.00;;;8.10;;
66425;SDS011;53237;46.158;14.604;2023-04-16T00:41:50;10.18;;;9.07;;
66425;SDS011;53237;46.158;14.604;2023-04-16T00:44:16;9.57;;;8.68;;
66425;SDS011;53237;46.158;14.604;2023-04-16T00:46:42;9.63;;;8.70;;
66425;SDS011;53237;46.158;14.604;2023-04-16T00:49:08;9.35;;;8.45;;
66425;SDS011;53237;46.158;14.604;2023-04-16T00:51:34;11.52;;;10.07;;
66425;SDS011;53237;46.158;14.604;2023-04-16T00:54:01;12.63;;;11.30;;
66425;SDS011;53237;46.158;14.604;2023-04-16T00:56:27;12.40;;;9.50;;
66425;SDS011;53237;46.158;14.604;2023-04-16T00:58:54;10.68;;;9.35;;
66425;SDS011;53237;46.158;14.604;2023-04-16T01:01:23;10.60;;;9.15;;
66425;SDS011;53237;46.158;14.604;2023-04-16T01:03:49;12.43;;;9.98;;
66425;SDS011;53237;46.158;14.604;2023-04-16T01:06:15;12.73;;;11.23;;
66425;SDS011;53237;46.158;14.604;2023-04-16T01:08:42;13.60;;;12.20;;
66425;SDS011;53237;46.158;14.604;2023-04-16T01:11:12;11.77;;;10.65;;
66425;SDS011;53237;46.158;14.604;2023-04-16T01:13:39;13.05;;;11.43;;
66425;SDS011;53237;46.158;14.604;2023-04-16T01:16:08;13.63;;;11.85;;
66425;SDS011;53237;46.158;14.604;2023-04-16T01:18:35;10.73;;;9.70;;
66425;SDS011;53237;46.158;14.604;2023-04-16T01:21:01;11.60;;;10.40;;
66425;SDS011;53237;46.158;14.604;2023-04-16T01:23:28;11.05;;;9.95;;
66425;SDS011;53237;46.158;14.604;2023-04-16T01:25:54;11.70;;;10.50;;
66425;SDS011;53237;46.158;14.604;2023-04-16T01:28:20;11.35;;;10.18;;
66425;SDS011;53237;46.158;14.604;2023-04-16T01:30:46;11.38;;;10.18;;
66425;SDS011;53237;46.158;14.604;2023-04-16T01:33:12;11.43;;;10.23;;
66425;SDS011;53237;46.158;14.604;2023-04-16T01:35:38;10.48;;;9.48;;
66425;SDS011;53237;46.158;14.604;2023-04-16T01:38:08;11.20;;;9.90;;
66425;SDS011;53237;46.158;14.604;2023-04-16T01:40:34;9.80;;;8.82;;
66425;SDS011;53237;46.158;14.604;2023-04-16T01:43:00;9.85;;;8.85;;
66425;SDS011;53237;46.158;14.604;2023-04-16T01:45:26;11.10;;;9.88;;
66425;SDS011;53237;46.158;14.604;2023-04-16T01:47:52;10.82;;;9.73;;
66425;SDS011;53237;46.158;14.604;2023-04-16T01:50:19;10.25;;;9.20;;
66425;SDS011;53237;46.158;14.604;2023-04-16T01:52:45;9.70;;;8.80;;
66425;SDS011;53237;46.158;14.604;2023-04-16T01:55:11;13.05;;;9.50;;
66425;SDS011;53237;46.158;14.604;2023-04-16T01:57:37;9.43;;;8.52;;
66425;SDS011;53237;46.158;14.604;2023-04-16T02:00:03;8.85;;;8.00;;
66425;SDS011;53237;46.158;14.604;2023-04-16T02:02:30;10.57;;;9.57;;
66425;SDS011;53237;46.158;14.604;2023-04-16T02:04:56;9.23;;;8.32;;
66425;SDS011;53237;46.158;14.604;2023-04-16T02:07:23;9.95;;;8.95;;
66425;SDS011;53237;46.158;14.604;2023-04-16T02:09:49;9.80;;;8.82;;
66425;SDS011;53237;46.158;14.604;2023-04-16T02:12:15;15.10;;;10.73;;
66425;SDS011;53237;46.158;14.604;2023-04-16T02:14:41;10.88;;;9.73;;
66425;SDS011;53237;46.158;14.604;2023-04-16T02:17:07;12.60;;;9.85;;
66425;SDS011;53237;46.158;14.604;2023-04-16T02:19:33;9.88;;;8.88;;
66425;SDS011;53237;46.158;14.604;2023-04-16T02:22:00;10.50;;;9.02;;
66425;SDS011;53237;46.158;14.604;2023-04-16T02:24:26;9.73;;;8.73;;
66425;SDS011;53237;46.158;14.604;2023-04-16T02:26:52;10.80;;;9.13;;
66425;SDS011;53237;46.158;14.604;2023-04-16T02:29:18;10.07;;;9.00;;
66425;SDS011;53237;46.158;14.604;2023-04-16T02:31:46;9.27;;;8.18;;
66425;SDS011;53237;46.158;14.604;2023-04-16T02:34:12;9.02;;;8.13;;
66425;SDS011;53237;46.158;14.604;2023-04-16T02:36:39;9.07;;;8.25;;
66425;SDS011;53237;46.158;14.604;2023-04-16T02:39:05;8.93;;;7.97;;
66425;SDS011;53237;46.158;14.604;2023-04-16T02:41:31;9.90;;;8.90;;
66425;SDS011;53237;46.158;14.604;2023-04-16T02:43:57;7.75;;;7.05;;
66425;SDS011;53237;46.158;14.604;2023-04-16T02:46:23;9.40;;;8.10;;
66425;SDS011;53237;46.158;14.604;2023-04-16T02:48:49;8.60;;;7.72;;
66425;SDS011;53237;46.158;14.604;2023-04-16T02:51:15;8.55;;;7.40;;
66425;SDS011;53237;46.158;14.604;2023-04-16T02:53:41;8.77;;;7.88;;
66425;SDS011;53237;46.158;14.604;2023-04-16T02:56:10;7.97;;;7.18;;
66425;SDS011;53237;46.158;14.604;2023-04-16T02:58:36;8.55;;;7.75;;
66425;SDS011;53237;46.158;14.604;2023-04-16T03:01:03;8.07;;;7.13;;
66425;SDS011;53237;46.158;14.604;2023-04-16T03:03:29;7.60;;;6.80;;
66425;SDS011;53237;46.158;14.604;2023-04-16T03:05:55;8.65;;;7.50;;
66425;SDS011;53237;46.158;14.604;2023-04-16T03:08:21;9.18;;;7.57;;
66425;SDS011;53237;46.158;14.604;2023-04-16T03:10:47;7.25;;;6.55;;
66425;SDS011;53237;46.158;14.604;2023-04-16T03:13:13;7.60;;;6.82;;
66425;SDS011;53237;46.158;14.604;2023-04-16T03:15:39;6.15;;;5.55;;
66425;SDS011;53237;46.158;14.604;2023-04-16T03:18:05;7.05;;;6.20;;
66425;SDS011;53237;46.158;14.604;2023-04-16T03:20:31;6.75;;;6.13;;
66425;SDS011;53237;46.158;14.604;2023-04-16T03:22:57;6.35;;;5.75;;
66425;SDS011;53237;46.158;14.604;2023-04-16T03:25:23;5.55;;;5.03;;
66425;SDS011;53237;46.158;14.604;2023-04-16T03:27:49;6.97;;;5.80;;
66425;SDS011;53237;46.158;14.604;2023-04-16T03:30:16;5.95;;;5.35;;
66425;SDS011;53237;46.158;14.604;2023-04-16T03:32:41;7.43;;;5.35;;
66425;SDS011;53237;46.158;14.604;2023-04-16T03:35:08;5.03;;;4.53;;
66425;SDS011;53237;46.158;14.604;2023-04-16T03:37:34;5.00;;;4.50;;
66425;SDS011;53237;46.158;14.604;2023-04-16T03:40:00;6.40;;;5.40;;
66425;SDS011;53237;46.158;14.604;2023-04-16T03:42:29;6.55;;;5.85;;
66425;SDS011;53237;46.158;14.604;2023-04-16T03:44:55;5.03;;;4.53;;
66425;SDS011;53237;46.158;14.604;2023-04-16T03:47:21;5.22;;;4.72;;
66425;SDS011;53237;46.158;14.604;2023-04-16T03:49:47;5.03;;;4.55;;
66425;SDS011;53237;46.158;14.604;2023-04-16T03:52:13;5.45;;;4.93;;
66425;SDS011;53237;46.158;14.604;2023-04-16T03:54:39;4.70;;;4.20;;
66425;SDS011;53237;46.158;14.604;2023-04-16T03:57:05;5.22;;;4.72;;
66425;SDS011;53237;46.158;14.604;2023-04-16T03:59:31;4.90;;;4.47;;
66425;SDS011;53237;46.158;14.604;2023-04-16T04:01:57;4.65;;;4.20;;
66425;SDS011;53237;46.158;14.604;2023-04-16T04:04:23;4.25;;;3.85;;
66425;SDS011;53237;46.158;14.604;2023-04-16T04:06:49;4.65;;;3.88;;
66425;SDS011;53237;46.158;14.604;2023-04-16T04:09:15;4.60;;;4.20;;
66425;SDS011;53237;46.158;14.604;2023-04-16T04:11:41;4.50;;;4.10;;
66425;SDS011;53237;46.158;14.604;2023-04-16T04:14:08;4.10;;;3.70;;
66425;SDS011;53237;46.158;14.604;2023-04-16T04:16:34;4.55;;;4.05;;
66425;SDS011;53237;46.158;14.604;2023-04-16T04:19:00;4.35;;;3.95;;
66425;SDS011;53237;46.158;14.604;2023-04-16T04:21:26;4.43;;;3.92;;
66425;SDS011;53237;46.158;14.604;2023-04-16T04:23:52;4.68;;;4.20;;
66425;SDS011;53237;46.158;14.604;2023-04-16T04:26:18;4.88;;;4.35;;
66425;SDS011;53237;46.158;14.604;2023-04-16T04:28:45;6.50;;;4.38;;
66425;SDS011;53237;46.158;14.604;2023-04-16T04:31:11;4.38;;;3.60;;
66425;SDS011;53237;46.158;14.604;2023-04-16T04:33:37;4.57;;;4.03;;
66425;SDS011;53237;46.158;14.604;2023-04-16T04:36:03;4.13;;;3.72;;
66425;SDS011;53237;46.158;14.604;2023-04-16T04:38:29;3.58;;;3.28;;
66425;SDS011;53237;46.158;14.604;2023-04-16T04:40:56;4.38;;;3.88;;
66425;SDS011;53237;46.158;14.604;2023-04-16T04:43:22;3.90;;;3.53;;
66425;SDS011;53237;46.158;14.604;2023-04-16T04:45:48;4.10;;;3.60;;
66425;SDS011;53237;46.158;14.604;2023-04-16T04:48:14;4.43;;;3.92;;
66425;SDS011;53237;46.158;14.604;2023-04-16T04:50:40;3.25;;;2.95;;
66425;SDS011;53237;46.158;14.604;2023-04-16T04:53:07;3.92;;;3.60;;
66425;SDS011;53237;46.158;14.604;2023-04-16T04:55:36;4.38;;;3.90;;
66425;SDS011;53237;46.158;14.604;2023-04-16T04:58:03;3.55;;;3.03;;
66425;SDS011;53237;46.158;14.604;2023-04-16T05:00:29;7.13;;;4.00;;
66425;SDS011;53237;46.158;14.604;2023-04-16T05:02:55;3.72;;;3.42;;
66425;SDS011;53237;46.158;14.604;2023-04-16T05:05:21;3.58;;;3.25;;
66425;SDS011;53237;46.158;14.604;2023-04-16T05:07:47;3.22;;;2.90;;
66425;SDS011;53237;46.158;14.604;2023-04-16T05:10:13;3.72;;;3.40;;
66425;SDS011;53237;46.158;14.604;2023-04-16T05:12:39;3.97;;;3.58;;
66425;SDS011;53237;46.158;14.604;2023-04-16T05:15:05;4.28;;;3.80;;
66425;SDS011;53237;46.158;14.604;2023-04-16T05:17:31;4.55;;;4.00;;
66425;SDS011;53237;46.158;14.604;2023-04-16T05:19:57;4.00;;;3.58;;
66425;SDS011;53237;46.158;14.604;2023-04-16T05:22:23;5.05;;;3.90;;
66425;SDS011;53237;46.158;14.604;2023-04-16T05:24:49;4.90;;;4.03;;
66425;SDS011;53237;46.158;14.604;2023-04-16T05:27:15;5.22;;;3.78;;
66425;SDS011;53237;46.158;14.604;2023-04-16T05:29:41;4.30;;;3.90;;
66425;SDS011;53237;46.158;14.604;2023-04-16T05:32:07;3.80;;;3.50;;
66425;SDS011;53237;46.158;14.604;2023-04-16T05:34:33;5.25;;;4.78;;
66425;SDS011;53237;46.158;14.604;2023-04-16T05:36:59;3.92;;;3.53;;
66425;SDS011;53237;46.158;14.604;2023-04-16T05:39:25;5.28;;;3.72;;
66425;SDS011;53237;46.158;14.604;2023-04-16T05:41:52;4.65;;;4.00;;
66425;SDS011;53237;46.158;14.604;2023-04-16T05:44:18;4.30;;;3.90;;
66425;SDS011;53237;46.158;14.604;2023-04-16T05:46:44;4.50;;;4.10;;
66425;SDS011;53237;46.158;14.604;2023-04-16T05:49:10;3.97;;;3.67;;
66425;SDS011;53237;46.158;14.604;2023-04-16T05:51:36;5.80;;;5.30;;
66425;SDS011;53237;46.158;14.604;2023-04-16T05:54:02;4.40;;;4.00;;
66425;SDS011;53237;46.158;14.604;2023-04-16T05:56:28;6.72;;;4.55;;
66425;SDS011;53237;46.158;14.604;2023-04-16T05:58:54;4.30;;;3.90;;
66425;SDS011;53237;46.158;14.604;2023-04-16T06:01:20;4.40;;;4.00;;
66425;SDS011;53237;46.158;14.604;2023-04-16T06:03:46;4.75;;;3.90;;
66425;SDS011;53237;46.158;14.604;2023-04-16T06:06:12;4.20;;;3.90;;
66425;SDS011;53237;46.158;14.604;2023-04-16T06:08:38;4.53;;;3.40;;
66425;SDS011;53237;46.158;14.604;2023-04-16T06:11:04;4.35;;;3.95;;
66425;SDS011;53237;46.158;14.604;2023-04-16T06:13:30;4.45;;;4.05;;
66425;SDS011;53237;46.158;14.604;2023-04-16T06:15:56;4.65;;;4.22;;
66425;SDS011;53237;46.158;14.604;2023-04-16T06:18:22;5.28;;;3.97;;
66425;SDS011;53237;46.158;14.604;2023-04-16T06:20:48;4.22;;;3.90;;
66425;SDS011;53237;46.158;14.604;2023-04-16T06:23:14;3.45;;;3.15;;
66425;SDS011;53237;46.158;14.604;2023-04-16T06:25:40;3.63;;;3.33;;
66425;SDS011;53237;46.158;14.604;2023-04-16T06:28:06;3.85;;;3.50;;
66425;SDS011;53237;46.158;14.604;2023-04-16T06:30:32;4.20;;;3.67;;
66425;SDS011;53237;46.158;14.604;2023-04-16T06:32:58;3.63;;;3.15;;
66425;SDS011;53237;46.158;14.604;2023-04-16T06:35:24;5.05;;;3.85;;
66425;SDS011;53237;46.158;14.604;2023-04-16T06:37:50;5.28;;;4.78;;
66425;SDS011;53237;46.158;14.604;2023-04-16T06:40:16;6.47;;;4.93;;
66425;SDS011;53237;46.158;14.604;2023-04-16T06:42:42;4.93;;;4.13;;
66425;SDS011;53237;46.158;14.604;2023-04-16T06:45:08;4.80;;;4.30;;
66425;SDS011;53237;46.158;14.604;2023-04-16T06:47:35;3.58;;;3.10;;
66425;SDS011;53237;46.158;14.604;2023-04-16T06:50:01;4.35;;;3.65;;
66425;SDS011;53237;46.158;14.604;2023-04-16T06:52:27;4.68;;;4.28;;
66425;SDS011;53237;46.158;14.604;2023-04-16T06:54:53;4.72;;;3.95;;
66425;SDS011;53237;46.158;14.604;2023-04-16T06:57:19;3.65;;;3.20;;
66425;SDS011;53237;46.158;14.604;2023-04-16T06:59:45;6.03;;;4.45;;
66425;SDS011;53237;46.158;14.604;2023-04-16T07:02:11;17.75;;;13.95;;
66425;SDS011;53237;46.158;14.604;2023-04-16T07:04:44;8.93;;;8.02;;
66425;SDS011;53237;46.158;14.604;2023-04-16T07:07:10;6.05;;;5.47;;
66425;SDS011;53237;46.158;14.604;2023-04-16T07:09:36;8.80;;;7.90;;
66425;SDS011;53237;46.158;14.604;2023-04-16T07:12:02;20.55;;;16.02;;
66425;SDS011;53237;46.158;14.604;2023-04-16T07:14:28;6.85;;;6.15;;
66425;SDS011;53237;46.158;14.604;2023-04-16T07:16:55;16.55;;;13.00;;
66425;SDS011;53237;46.158;14.604;2023-04-16T07:19:21;7.35;;;6.55;;
66425;SDS011;53237;46.158;14.604;2023-04-16T07:21:47;9.60;;;7.78;;
66425;SDS011;53237;46.158;14.604;2023-04-16T07:24:13;6.78;;;6.07;;
66425;SDS011;53237;46.158;14.604;2023-04-16T07:26:39;7.50;;;5.70;;
66425;SDS011;53237;46.158;14.604;2023-04-16T07:29:05;5.55;;;4.90;;
66425;SDS011;53237;46.158;14.604;2023-04-16T07:31:31;5.90;;;5.25;;
66425;SDS011;53237;46.158;14.604;2023-04-16T07:33:57;4.43;;;4.05;;
66425;SDS011;53237;46.158;14.604;2023-04-16T07:36:23;4.43;;;4.00;;
66425;SDS011;53237;46.158;14.604;2023-04-16T07:38:51;4.70;;;4.30;;
66425;SDS011;53237;46.158;14.604;2023-04-16T07:41:17;5.25;;;4.68;;
66425;SDS011;53237;46.158;14.604;2023-04-16T07:43:43;4.95;;;4.20;;
66425;SDS011;53237;46.158;14.604;2023-04-16T07:46:09;5.30;;;4.75;;
66425;SDS011;53237;46.158;14.604;2023-04-16T07:48:35;5.35;;;4.50;;
66425;SDS011;53237;46.158;14.604;2023-04-16T07:51:01;4.40;;;4.00;;
66425;SDS011;53237;46.158;14.604;2023-04-16T07:53:27;4.28;;;3.88;;
66425;SDS011;53237;46.158;14.604;2023-04-16T07:55:53;4.60;;;4.20;;
66425;SDS011;53237;46.158;14.604;2023-04-16T07:58:19;4.00;;;3.53;;
66425;SDS011;53237;46.158;14.604;2023-04-16T08:00:45;4.53;;;3.70;;
66425;SDS011;53237;46.158;14.604;2023-04-16T08:03:11;3.55;;;3.25;;
66425;SDS011;53237;46.158;14.604;2023-04-16T08:05:39;4.18;;;3.78;;
66425;SDS011;53237;46.158;14.604;2023-04-16T08:08:05;4.70;;;4.18;;
66425;SDS011;53237;46.158;14.604;2023-04-16T08:10:32;5.95;;;3.90;;
66425;SDS011;53237;46.158;14.604;2023-04-16T08:12:59;4.47;;;4.07;;
66425;SDS011;53237;46.158;14.604;2023-04-16T08:15:25;3.83;;;3.50;;
66425;SDS011;53237;46.158;14.604;2023-04-16T08:17:51;3.90;;;3.60;;
66425;SDS011;53237;46.158;14.604;2023-04-16T08:20:17;4.78;;;4.22;;
66425;SDS011;53237;46.158;14.604;2023-04-16T08:22:44;4.50;;;4.10;;
66425;SDS011;53237;46.158;14.604;2023-04-16T08:25:10;4.20;;;3.72;;
66425;SDS011;53237;46.158;14.604;2023-04-16T08:27:36;5.88;;;5.10;;
66425;SDS011;53237;46.158;14.604;2023-04-16T08:30:02;5.90;;;5.15;;
66425;SDS011;53237;46.158;14.604;2023-04-16T08:32:28;5.78;;;4.60;;
66425;SDS011;53237;46.158;14.604;2023-04-16T08:34:54;4.38;;;3.90;;
66425;SDS011;53237;46.158;14.604;2023-04-16T08:37:21;4.68;;;4.25;;
66425;SDS011;53237;46.158;14.604;2023-04-16T08:39:47;4.75;;;4.25;;
66425;SDS011;53237;46.158;14.604;2023-04-16T08:42:18;5.50;;;4.00;;
66425;SDS011;53237;46.158;14.604;2023-04-16T08:44:47;4.57;;;3.95;;
66425;SDS011;53237;46.158;14.604;2023-04-16T08:47:14;4.75;;;4.35;;
66425;SDS011;53237;46.158;14.604;2023-04-16T08:49:42;5.40;;;4.40;;
66425;SDS011;53237;46.158;14.604;2023-04-16T08:52:08;5.93;;;4.55;;
66425;SDS011;53237;46.158;14.604;2023-04-16T08:54:43;5.05;;;4.55;;
66425;SDS011;53237;46.158;14.604;2023-04-16T08:57:11;4.20;;;3.75;;
66425;SDS011;53237;46.158;14.604;2023-04-16T08:59:37;3.97;;;3.58;;
66425;SDS011;53237;46.158;14.604;2023-04-16T09:02:03;3.78;;;3.33;;
66425;SDS011;53237;46.158;14.604;2023-04-16T09:04:31;3.35;;;3.05;;
66425;SDS011;53237;46.158;14.604;2023-04-16T09:06:57;3.22;;;2.90;;
66425;SDS011;53237;46.158;14.604;2023-04-16T09:09:26;2.33;;;2.13;;
66425;SDS011;53237;46.158;14.604;2023-04-16T09:11:53;4.13;;;3.00;;
66425;SDS011;53237;46.158;14.604;2023-04-16T09:14:19;3.28;;;2.88;;
66425;SDS011;53237;46.158;14.604;2023-04-16T09:16:46;2.38;;;2.17;;
66425;SDS011;53237;46.158;14.604;2023-04-16T09:19:13;2.10;;;1.90;;
66425;SDS011;53237;46.158;14.604;2023-04-16T09:21:39;2.20;;;2.10;;
66425;SDS011;53237;46.158;14.604;2023-04-16T09:24:06;1.95;;;1.77;;
66425;SDS011;53237;46.158;14.604;2023-04-16T09:26:33;1.73;;;1.63;;
66425;SDS011;53237;46.158;14.604;2023-04-16T09:28:59;1.73;;;1.63;;
66425;SDS011;53237;46.158;14.604;2023-04-16T09:31:25;2.10;;;1.90;;
66425;SDS011;53237;46.158;14.604;2023-04-16T09:34:01;1.70;;;1.60;;
66425;SDS011;53237;46.158;14.604;2023-04-16T09:36:28;1.70;;;1.58;;
66425;SDS011;53237;46.158;14.604;2023-04-16T09:38:55;2.70;;;2.40;;
66425;SDS011;53237;46.158;14.604;2023-04-16T09:41:28;2.10;;;1.88;;
66425;SDS011;53237;46.158;14.604;2023-04-16T09:44:02;2.08;;;1.88;;
66425;SDS011;53237;46.158;14.604;2023-04-16T09:46:29;1.80;;;1.70;;
66425;SDS011;53237;46.158;14.604;2023-04-16T09:48:56;2.13;;;1.92;;
66425;SDS011;53237;46.158;14.604;2023-04-16T09:51:22;2.08;;;1.88;;
66425;SDS011;53237;46.158;14.604;2023-04-16T09:53:51;2.67;;;2.00;;
66425;SDS011;53237;46.158;14.604;2023-04-16T09:56:22;1.80;;;1.70;;
66425;SDS011;53237;46.158;14.604;2023-04-16T09:58:48;1.80;;;1.60;;
66425;SDS011;53237;46.158;14.604;2023-04-16T10:01:16;1.50;;;1.40;;
66425;SDS011;53237;46.158;14.604;2023-04-16T10:03:42;1.80;;;1.70;;
66425;SDS011;53237;46.158;14.604;2023-04-16T10:06:15;1.55;;;1.42;;
66425;SDS011;53237;46.158;14.604;2023-04-16T10:08:43;1.50;;;1.40;;
66425;SDS011;53237;46.158;14.604;2023-04-16T10:11:09;1.52;;;1.42;;
66425;SDS011;53237;46.158;14.604;2023-04-16T10:13:35;1.27;;;1.17;;
66425;SDS011;53237;46.158;14.604;2023-04-16T10:16:01;1.33;;;1.23;;
66425;SDS011;53237;46.158;14.604;2023-04-16T10:18:28;1.30;;;1.20;;
66425;SDS011;53237;46.158;14.604;2023-04-16T10:20:54;1.50;;;1.40;;
66425;SDS011;53237;46.158;14.604;2023-04-16T10:23:20;1.30;;;1.20;;
66425;SDS011;53237;46.158;14.604;2023-04-16T10:25:47;1.33;;;1.13;;
66425;SDS011;53237;46.158;14.604;2023-04-16T10:28:13;1.30;;;1.20;;
66425;SDS011;53237;46.158;14.604;2023-04-16T10:30:40;1.20;;;1.10;;
66425;SDS011;53237;46.158;14.604;2023-04-16T10:33:06;1.02;;;1.02;;
66425;SDS011;53237;46.158;14.604;2023-04-16T10:35:35;0.95;;;0.90;;
66425;SDS011;53237;46.158;14.604;2023-04-16T10:40:48;1.38;;;0.60;;
66425;SDS011;53237;46.158;14.604;2023-04-16T10:43:17;0.82;;;0.82;;
66425;SDS011;53237;46.158;14.604;2023-04-16T10:45:44;0.80;;;0.80;;
66425;SDS011;53237;46.158;14.604;2023-04-16T10:48:10;1.10;;;1.00;;
66425;SDS011;53237;46.158;14.604;2023-04-16T10:50:38;0.90;;;0.80;;
66425;SDS011;53237;46.158;14.604;2023-04-16T10:58:30;1.40;;;1.30;;
66425;SDS011;53237;46.158;14.604;2023-04-16T11:00:58;1.35;;;1.10;;
66425;SDS011;53237;46.158;14.604;2023-04-16T11:03:28;1.40;;;1.10;;
66425;SDS011;53237;46.158;14.604;2023-04-16T11:06:08;1.17;;;1.00;;
66425;SDS011;53237;46.158;14.604;2023-04-16T11:08:34;1.77;;;0.90;;
66425;SDS011;53237;46.158;14.604;2023-04-16T11:11:00;1.42;;;1.17;;
66425;SDS011;53237;46.158;14.604;2023-04-16T11:13:29;2.58;;;1.00;;
66425;SDS011;53237;46.158;14.604;2023-04-16T11:15:56;0.98;;;0.80;;
66425;SDS011;53237;46.158;14.604;2023-04-16T11:18:23;0.65;;;0.60;;
66425;SDS011;53237;46.158;14.604;2023-04-16T11:20:49;1.45;;;0.85;;
66425;SDS011;53237;46.158;14.604;2023-04-16T11:23:15;2.17;;;1.35;;
66425;SDS011;53237;46.158;14.604;2023-04-16T11:25:41;1.88;;;1.35;;
66425;SDS011;53237;46.158;14.604;2023-04-16T11:28:07;1.23;;;0.80;;
66425;SDS011;53237;46.158;14.604;2023-04-16T11:30:34;1.95;;;1.75;;
66425;SDS011;53237;46.158;14.604;2023-04-16T11:33:04;1.65;;;1.40;;
66425;SDS011;53237;46.158;14.604;2023-04-16T11:35:30;0.50;;;0.50;;
66425;SDS011;53237;46.158;14.604;2023-04-16T11:37:56;2.78;;;1.77;;
66425;SDS011;53237;46.158;14.604;2023-04-16T11:40:23;1.00;;;0.88;;
66425;SDS011;53237;46.158;14.604;2023-04-16T11:42:49;0.70;;;0.70;;
66425;SDS011;53237;46.158;14.604;2023-04-16T11:45:15;0.43;;;0.30;;
66425;SDS011;53237;46.158;14.604;2023-04-16T11:47:49;0.63;;;0.60;;
66425;SDS011;53237;46.158;14.604;2023-04-16T11:52:42;0.60;;;0.60;;
66425;SDS011;53237;46.158;14.604;2023-04-16T11:55:08;0.40;;;0.40;;
66425;SDS011;53237;46.158;14.604;2023-04-16T11:57:34;0.40;;;0.40;;
66425;SDS011;53237;46.158;14.604;2023-04-16T12:00:02;0.47;;;0.47;;
66425;SDS011;53237;46.158;14.604;2023-04-16T12:02:33;0.50;;;0.50;;
66425;SDS011;53237;46.158;14.604;2023-04-16T12:04:59;1.85;;;0.57;;
66425;SDS011;53237;46.158;14.604;2023-04-16T12:07:25;0.50;;;0.50;;
66425;SDS011;53237;46.158;14.604;2023-04-16T12:10:03;0.40;;;0.40;;
66425;SDS011;53237;46.158;14.604;2023-04-16T12:12:30;0.68;;;0.68;;
66425;SDS011;53237;46.158;14.604;2023-04-16T12:14:56;0.47;;;0.47;;
66425;SDS011;53237;46.158;14.604;2023-04-16T12:17:27;0.47;;;0.47;;
66425;SDS011;53237;46.158;14.604;2023-04-16T12:19:58;0.50;;;0.50;;
66425;SDS011;53237;46.158;14.604;2023-04-16T12:22:27;0.40;;;0.40;;
66425;SDS011;53237;46.158;14.604;2023-04-16T12:24:54;0.50;;;0.50;;
66425;SDS011;53237;46.158;14.604;2023-04-16T12:27:21;0.50;;;0.50;;
66425;SDS011;53237;46.158;14.604;2023-04-16T12:30:01;0.60;;;0.60;;
66425;SDS011;53237;46.158;14.604;2023-04-16T12:32:27;0.60;;;0.60;;
66425;SDS011;53237;46.158;14.604;2023-04-16T12:34:53;0.50;;;0.50;;
66425;SDS011;53237;46.158;14.604;2023-04-16T12:37:20;0.63;;;0.63;;
66425;SDS011;53237;46.158;14.604;2023-04-16T12:39:45;0.60;;;0.60;;
66425;SDS011;53237;46.158;14.604;2023-04-16T12:42:12;0.70;;;0.70;;
66425;SDS011;53237;46.158;14.604;2023-04-16T12:44:38;0.80;;;0.80;;
66425;SDS011;53237;46.158;14.604;2023-04-16T12:47:04;0.95;;;0.90;;
66425;SDS011;53237;46.158;14.604;2023-04-16T12:49:30;0.60;;;0.60;;
66425;SDS011;53237;46.158;14.604;2023-04-16T12:51:56;0.70;;;0.70;;
66425;SDS011;53237;46.158;14.604;2023-04-16T12:54:22;0.70;;;0.70;;
66425;SDS011;53237;46.158;14.604;2023-04-16T12:56:52;0.60;;;0.60;;
66425;SDS011;53237;46.158;14.604;2023-04-16T12:59:19;1.85;;;0.90;;
66425;SDS011;53237;46.158;14.604;2023-04-16T13:01:45;0.77;;;0.70;;
66425;SDS011;53237;46.158;14.604;2023-04-16T13:04:10;0.70;;;0.70;;
66425;SDS011;53237;46.158;14.604;2023-04-16T13:06:37;0.60;;;0.60;;
66425;SDS011;53237;46.158;14.604;2023-04-16T13:09:03;0.82;;;0.80;;
66425;SDS011;53237;46.158;14.604;2023-04-16T13:11:29;0.70;;;0.70;;
66425;SDS011;53237;46.158;14.604;2023-04-16T13:13:55;0.73;;;0.70;;
66425;SDS011;53237;46.158;14.604;2023-04-16T13:16:21;0.63;;;0.63;;
66425;SDS011;53237;46.158;14.604;2023-04-16T13:18:47;0.63;;;0.63;;
66425;SDS011;53237;46.158;14.604;2023-04-16T13:21:13;0.80;;;0.80;;
66425;SDS011;53237;46.158;14.604;2023-04-16T13:23:39;0.80;;;0.80;;
66425;SDS011;53237;46.158;14.604;2023-04-16T13:26:05;0.80;;;0.80;;
66425;SDS011;53237;46.158;14.604;2023-04-16T13:28:31;0.88;;;0.88;;
66425;SDS011;53237;46.158;14.604;2023-04-16T13:30:57;1.00;;;1.00;;
66425;SDS011;53237;46.158;14.604;2023-04-16T13:33:24;1.48;;;0.90;;
66425;SDS011;53237;46.158;14.604;2023-04-16T13:35:50;1.05;;;0.93;;
66425;SDS011;53237;46.158;14.604;2023-04-16T13:38:16;0.75;;;0.75;;
66425;SDS011;53237;46.158;14.604;2023-04-16T13:40:42;0.73;;;0.70;;
66425;SDS011;53237;46.158;14.604;2023-04-16T13:43:08;0.70;;;0.70;;
66425;SDS011;53237;46.158;14.604;2023-04-16T13:45:36;0.70;;;0.60;;
66425;SDS011;53237;46.158;14.604;2023-04-16T13:48:02;1.02;;;0.80;;
66425;SDS011;53237;46.158;14.604;2023-04-16T13:50:28;0.65;;;0.65;;
66425;SDS011;53237;46.158;14.604;2023-04-16T13:52:54;0.93;;;0.70;;
66425;SDS011;53237;46.158;14.604;2023-04-16T13:55:20;0.88;;;0.70;;
66425;SDS011;53237;46.158;14.604;2023-04-16T13:57:46;1.48;;;1.00;;
66425;SDS011;53237;46.158;14.604;2023-04-16T14:00:13;0.70;;;0.70;;
66425;SDS011;53237;46.158;14.604;2023-04-16T14:02:40;0.70;;;0.70;;
66425;SDS011;53237;46.158;14.604;2023-04-16T14:05:07;0.60;;;0.60;;
66425;SDS011;53237;46.158;14.604;2023-04-16T14:07:33;1.30;;;1.20;;
66425;SDS011;53237;46.158;14.604;2023-04-16T14:09:59;1.42;;;1.33;;
66425;SDS011;53237;46.158;14.604;2023-04-16T14:12:26;1.88;;;1.73;;
66425;SDS011;53237;46.158;14.604;2023-04-16T14:14:52;2.33;;;2.10;;
66425;SDS011;53237;46.158;14.604;2023-04-16T14:17:18;1.65;;;1.55;;
66425;SDS011;53237;46.158;14.604;2023-04-16T14:19:44;2.00;;;1.75;;
66425;SDS011;53237;46.158;14.604;2023-04-16T14:22:10;7.32;;;5.70;;
66425;SDS011;53237;46.158;14.604;2023-04-16T14:24:36;3.03;;;2.72;;
66425;SDS011;53237;46.158;14.604;2023-04-16T14:27:02;2.40;;;2.20;;
66425;SDS011;53237;46.158;14.604;2023-04-16T14:29:29;1.90;;;1.80;;
66425;SDS011;53237;46.158;14.604;2023-04-16T14:31:55;1.95;;;1.75;;
66425;SDS011;53237;46.158;14.604;2023-04-16T14:34:21;1.80;;;1.70;;
66425;SDS011;53237;46.158;14.604;2023-04-16T14:36:47;1.45;;;1.35;;
66425;SDS011;53237;46.158;14.604;2023-04-16T14:39:14;1.30;;;1.00;;